Time;durP1;ratioP1;P1;durP2;ratioP2;P2;SDS_P1;SDS_P2;PMS_P1;PMS_P2;Temp;Humidity;BMP_temperature;BMP_pressure;BME280_temperature;BME280_humidity;BME280_pressure;Samples;Min_cycle;Max_cycle;Signal;HPM_P1;HPM_P2
2022/02/13 00:00:53;;;;;;;6.45;4.07;;;4.30;67.20;;;;;;5055107;28;20025;-32
2022/02/13 00:03:19;;;;;;;7.75;3.95;;;4.30;67.20;;;;;;5054682;28;20064;-32
2022/02/13 00:05:44;;;;;;;7.30;3.35;;;4.30;67.20;;;;;;5054603;28;20056;-35
2022/02/13 00:08:10;;;;;;;7.40;3.92;;;4.20;67.30;;;;;;5054914;28;20025;-30
2022/02/13 00:10:36;;;;;;;8.52;4.00;;;4.20;67.40;;;;;;5054813;28;20017;-32
2022/02/13 00:13:01;;;;;;;7.93;3.75;;;4.20;67.40;;;;;;5054614;28;20020;-30
2022/02/13 00:15:27;;;;;;;7.05;4.03;;;4.20;67.40;;;;;;5054450;28;20424;-30
2022/02/13 00:17:52;;;;;;;6.60;3.90;;;4.20;67.50;;;;;;5054489;28;20104;-34
2022/02/13 00:20:18;;;;;;;8.80;3.92;;;4.20;67.60;;;;;;5054464;28;20477;-33
2022/02/13 00:22:44;;;;;;;7.35;4.05;;;4.20;67.60;;;;;;5054364;28;20104;-31
2022/02/13 00:25:09;;;;;;;9.68;3.90;;;4.10;67.70;;;;;;5054237;28;20044;-31
2022/02/13 00:27:36;;;;;;;8.68;3.70;;;4.10;67.70;;;;;;5054237;28;20048;-34
2022/02/13 00:30:03;;;;;;;6.82;3.83;;;4.10;67.80;;;;;;5054243;28;20036;-30
2022/02/13 00:32:29;;;;;;;7.30;3.60;;;4.10;67.80;;;;;;5054439;28;20021;-35
2022/02/13 00:34:54;;;;;;;4.30;3.05;;;4.10;67.90;;;;;;5054178;28;20051;-31
2022/02/13 00:37:20;;;;;;;6.10;3.60;;;4.10;67.90;;;;;;5054335;28;20047;-33
2022/02/13 00:39:45;;;;;;;7.40;3.85;;;4.10;68.00;;;;;;5054098;28;20052;-30
2022/02/13 00:42:11;;;;;;;8.30;4.15;;;4.10;68.00;;;;;;5053920;28;20025;-32
2022/02/13 00:44:37;;;;;;;8.55;3.75;;;4.00;68.00;;;;;;5053849;28;20491;-30
2022/02/13 00:47:03;;;;;;;6.03;3.80;;;4.00;68.10;;;;;;5053926;28;20055;-33
2022/02/13 00:49:29;;;;;;;7.03;4.00;;;4.00;68.10;;;;;;5053943;28;20381;-31
2022/02/13 00:51:54;;;;;;;8.77;3.97;;;3.90;68.10;;;;;;5054119;28;20013;-31
2022/02/13 00:54:20;;;;;;;8.60;3.70;;;3.90;68.20;;;;;;5054009;28;20021;-30
2022/02/13 00:56:46;;;;;;;6.97;3.83;;;3.90;68.30;;;;;;5053621;28;20163;-30
2022/02/13 00:59:11;;;;;;;10.32;4.03;;;3.90;68.30;;;;;;5053698;28;20151;-36
2022/02/13 01:01:37;;;;;;;5.60;3.53;;;3.90;68.40;;;;;;5053844;28;20036;-34
2022/02/13 01:04:04;;;;;;;8.23;3.90;;;3.90;68.50;;;;;;5053774;28;20143;-33
2022/02/13 01:06:29;;;;;;;6.78;3.78;;;3.80;68.40;;;;;;5053646;28;20024;-33
2022/02/13 01:08:55;;;;;;;7.50;3.72;;;3.80;68.50;;;;;;5053753;28;20021;-31
2022/02/13 01:11:20;;;;;;;6.55;3.42;;;3.80;68.60;;;;;;5053395;28;20100;-31
2022/02/13 01:13:48;;;;;;;8.35;4.03;;;3.80;68.60;;;;;;5053374;28;20017;-30
2022/02/13 01:16:18;;;;;;;7.88;3.97;;;3.80;68.70;;;;;;5052201;28;20099;-30
2022/02/13 01:18:44;;;;;;;6.22;3.65;;;3.80;68.70;;;;;;5053341;28;20047;-30
2022/02/13 01:21:12;;;;;;;10.18;3.85;;;3.70;68.70;;;;;;5053342;28;20056;-30
2022/02/13 01:23:43;;;;;;;9.48;3.55;;;3.70;68.80;;;;;;5053200;28;20063;-34
2022/02/13 01:26:10;;;;;;;9.50;3.90;;;3.70;68.90;;;;;;5053181;28;20025;-30
2022/02/13 01:28:36;;;;;;;7.43;3.80;;;3.70;69.00;;;;;;5053188;28;20370;-33
2022/02/13 01:31:02;;;;;;;6.63;3.63;;;3.70;69.10;;;;;;5053165;28;20021;-30
2022/02/13 01:33:29;;;;;;;11.32;4.10;;;3.60;69.20;;;;;;5053045;28;20131;-30
2022/02/13 01:35:55;;;;;;;7.35;3.88;;;3.60;69.20;;;;;;5053050;28;20029;-33
2022/02/13 01:38:21;;;;;;;7.90;4.05;;;3.60;69.20;;;;;;5052945;28;20117;-34
2022/02/13 01:40:46;;;;;;;9.73;4.45;;;3.60;69.30;;;;;;5052984;28;20033;-30
2022/02/13 01:43:12;;;;;;;8.90;4.10;;;3.60;69.30;;;;;;5052769;28;20413;-31
2022/02/13 01:45:37;;;;;;;7.18;4.00;;;3.60;69.40;;;;;;5052725;28;20037;-37
2022/02/13 01:48:08;;;;;;;8.90;4.05;;;3.60;69.40;;;;;;5052979;28;20055;-34
2022/02/13 01:50:34;;;;;;;6.82;3.85;;;3.60;69.40;;;;;;5051478;28;20021;-30
2022/02/13 01:53:00;;;;;;;9.95;4.30;;;3.50;69.40;;;;;;5053071;28;20021;-31
2022/02/13 01:55:26;;;;;;;9.35;4.07;;;3.50;70.00;;;;;;5052711;28;20381;-31
2022/02/13 01:57:52;;;;;;;9.10;4.07;;;3.50;69.50;;;;;;5052691;28;20067;-30
2022/02/13 02:00:17;;;;;;;6.35;4.35;;;3.50;69.60;;;;;;5052720;28;20381;-31
2022/02/13 02:02:43;;;;;;;6.78;3.80;;;3.50;69.60;;;;;;5052683;28;20052;-30
2022/02/13 02:05:08;;;;;;;7.63;3.90;;;3.50;69.90;;;;;;5052611;28;20481;-30
2022/02/13 02:07:34;;;;;;;7.70;3.80;;;3.50;69.80;;;;;;5052104;28;20100;-32
2022/02/13 02:09:59;;;;;;;7.32;3.80;;;3.50;69.80;;;;;;5052569;28;20025;-33
2022/02/13 02:12:26;;;;;;;6.95;4.22;;;3.50;69.90;;;;;;5052836;28;20101;-30
2022/02/13 02:14:51;;;;;;;7.93;3.90;;;3.50;69.90;;;;;;5052837;28;20505;-31
2022/02/13 02:17:17;;;;;;;5.28;3.70;;;3.40;69.90;;;;;;5052673;28;20052;-30
2022/02/13 02:19:43;;;;;;;7.28;4.65;;;3.40;69.90;;;;;;5052504;28;20057;-32
2022/02/13 02:22:09;;;;;;;7.22;3.97;;;3.40;69.90;;;;;;5052661;28;20021;-34
2022/02/13 02:24:35;;;;;;;6.35;3.88;;;3.40;70.00;;;;;;5052632;28;20074;-34
2022/02/13 02:27:01;;;;;;;5.03;3.65;;;3.40;70.00;;;;;;5052449;28;20039;-35
2022/02/13 02:29:27;;;;;;;7.38;3.83;;;3.30;70.10;;;;;;5052453;28;20477;-34
2022/02/13 02:31:54;;;;;;;6.10;3.83;;;3.30;70.10;;;;;;5052183;28;20417;-32
2022/02/13 02:34:19;;;;;;;7.28;4.55;;;3.40;70.20;;;;;;5052455;28;20085;-35
2022/02/13 02:36:45;;;;;;;6.22;3.78;;;3.30;70.20;;;;;;5052267;28;20060;-30
2022/02/13 02:39:11;;;;;;;6.07;3.88;;;3.40;70.20;;;;;;5052182;28;20473;-33
2022/02/13 02:41:36;;;;;;;7.65;3.67;;;3.30;70.20;;;;;;5052361;28;20021;-30
2022/02/13 02:44:03;;;;;;;7.43;3.80;;;3.40;70.30;;;;;;5052097;28;20132;-30
2022/02/13 02:46:28;;;;;;;7.25;4.18;;;3.40;70.30;;;;;;5052243;28;20021;-31
2022/02/13 02:48:54;;;;;;;7.22;3.40;;;3.30;70.20;;;;;;5052320;28;20031;-32
2022/02/13 02:51:20;;;;;;;7.47;4.10;;;3.40;70.30;;;;;;5052181;28;20028;-30
2022/02/13 02:53:45;;;;;;;6.90;3.88;;;3.40;70.40;;;;;;5052217;28;20025;-31
2022/02/13 02:56:11;;;;;;;6.40;4.13;;;3.30;70.30;;;;;;5052499;28;20021;-31
2022/02/13 02:58:38;;;;;;;6.32;4.13;;;3.30;70.30;;;;;;5052385;28;20017;-30
2022/02/13 03:01:04;;;;;;;8.15;4.20;;;3.30;70.40;;;;;;5052116;28;20028;-33
2022/02/13 03:03:32;;;;;;;10.05;3.75;;;3.30;70.50;;;;;;5052145;28;20520;-31
2022/02/13 03:05:57;;;;;;;9.40;4.07;;;3.30;70.50;;;;;;5052359;28;20025;-30
2022/02/13 03:08:23;;;;;;;8.38;3.85;;;3.30;70.50;;;;;;5052003;28;20024;-32
2022/02/13 03:10:49;;;;;;;7.72;4.07;;;3.30;70.60;;;;;;5052336;28;20017;-34
2022/02/13 03:13:20;;;;;;;7.63;3.75;;;3.30;70.50;;;;;;5052097;28;20105;-30
2022/02/13 03:15:46;;;;;;;8.50;4.22;;;3.20;70.60;;;;;;5052018;28;20036;-35
2022/02/13 03:18:12;;;;;;;8.10;4.05;;;3.30;70.60;;;;;;5052030;28;20021;-32
2022/02/13 03:20:39;;;;;;;6.07;3.30;;;3.20;70.50;;;;;;5053595;28;20501;-30
2022/02/13 03:23:05;;;;;;;5.97;3.92;;;3.20;70.60;;;;;;5055665;28;20481;-31
2022/02/13 03:25:31;;;;;;;8.32;3.90;;;3.20;71.20;;;;;;5054053;28;20108;-30
2022/02/13 03:27:56;;;;;;;9.25;4.25;;;3.20;70.60;;;;;;5055538;28;20017;-31
2022/02/13 03:30:23;;;;;;;7.18;3.90;;;3.20;70.60;;;;;;5055731;28;20104;-30
2022/02/13 03:32:48;;;;;;;7.22;4.47;;;3.20;70.60;;;;;;5055553;28;20039;-31
2022/02/13 03:35:14;;;;;;;8.57;3.70;;;3.20;70.70;;;;;;5055240;28;20092;-30
2022/02/13 03:37:42;;;;;;;8.32;3.92;;;3.20;70.70;;;;;;5055189;28;20041;-35
2022/02/13 03:40:09;;;;;;;9.50;3.78;;;3.20;70.70;;;;;;5055450;28;20028;-30
2022/02/13 03:42:34;;;;;;;5.80;3.45;;;3.20;70.80;;;;;;5055038;28;20129;-34
2022/02/13 03:45:00;;;;;;;6.88;3.65;;;3.20;70.80;;;;;;5055303;28;20461;-30
2022/02/13 03:47:26;;;;;;;7.55;3.60;;;3.20;70.80;;;;;;5055137;28;20142;-31
2022/02/13 03:49:52;;;;;;;6.53;3.97;;;3.10;70.80;;;;;;5054969;28;20531;-31
2022/02/13 03:52:17;;;;;;;7.05;4.10;;;3.10;70.80;;;;;;5054995;28;20021;-35
2022/02/13 03:54:43;;;;;;;8.82;4.05;;;3.20;70.80;;;;;;5054856;28;20025;-32
2022/02/13 03:57:09;;;;;;;6.20;3.75;;;3.10;70.80;;;;;;5053549;28;20068;-30
2022/02/13 03:59:34;;;;;;;5.40;3.38;;;3.10;70.70;;;;;;5054791;28;20025;-33
2022/02/13 04:02:00;;;;;;;6.22;3.85;;;3.20;70.80;;;;;;5054850;28;20520;-30
2022/02/13 04:04:25;;;;;;;5.45;3.20;;;3.20;70.80;;;;;;5054652;28;20028;-30
2022/02/13 04:06:51;;;;;;;8.32;4.40;;;3.20;70.80;;;;;;5054758;28;20028;-31
2022/02/13 04:09:16;;;;;;;6.45;3.60;;;3.20;70.80;;;;;;5054680;28;20092;-30
2022/02/13 04:11:42;;;;;;;6.82;3.75;;;3.20;70.70;;;;;;5054889;28;20013;-31
2022/02/13 04:14:07;;;;;;;6.68;3.40;;;3.20;70.60;;;;;;5054938;28;20031;-30
2022/02/13 04:16:33;;;;;;;8.38;3.60;;;3.20;70.60;;;;;;5054702;28;20025;-30
2022/02/13 04:18:59;;;;;;;9.38;3.60;;;3.20;70.60;;;;;;5054542;28;20466;-32
2022/02/13 04:21:25;;;;;;;5.72;3.33;;;3.20;70.60;;;;;;5054426;28;20021;-31
2022/02/13 04:23:50;;;;;;;6.15;3.50;;;3.20;70.60;;;;;;5054638;28;20462;-34
2022/02/13 04:26:16;;;;;;;8.82;4.00;;;3.20;70.60;;;;;;5054415;28;20032;-32
2022/02/13 04:28:42;;;;;;;7.55;3.55;;;3.30;70.60;;;;;;5054267;28;20032;-31
2022/02/13 04:31:07;;;;;;;5.38;3.45;;;3.30;70.60;;;;;;5053922;28;20389;-30
2022/02/13 04:33:33;;;;;;;7.22;3.95;;;3.20;70.60;;;;;;5054070;28;20017;-31
2022/02/13 04:35:58;;;;;;;5.70;3.03;;;3.20;70.60;;;;;;5054146;28;20024;-31
2022/02/13 04:38:24;;;;;;;6.85;3.92;;;3.20;70.60;;;;;;5054062;28;20029;-32
2022/02/13 04:40:49;;;;;;;7.88;3.72;;;3.20;70.60;;;;;;5054179;28;20555;-30
2022/02/13 04:43:15;;;;;;;5.93;3.60;;;3.20;70.70;;;;;;5053880;28;20404;-34
2022/02/13 04:45:41;;;;;;;6.47;3.50;;;3.20;70.70;;;;;;5053782;28;20032;-30
2022/02/13 04:48:07;;;;;;;6.75;3.30;;;3.20;70.70;;;;;;5053819;28;20025;-30
2022/02/13 04:50:33;;;;;;;8.18;3.97;;;3.20;70.70;;;;;;5053962;28;20021;-30
2022/02/13 04:52:59;;;;;;;7.85;3.67;;;3.20;70.80;;;;;;5053774;28;20029;-33
2022/02/13 04:55:24;;;;;;;4.80;3.28;;;3.20;70.80;;;;;;5053719;28;20078;-31
2022/02/13 04:57:51;;;;;;;8.10;3.72;;;3.10;70.80;;;;;;5053770;28;20021;-37
2022/02/13 05:00:18;;;;;;;7.75;3.75;;;3.10;70.90;;;;;;5053673;28;20021;-30
2022/02/13 05:02:45;;;;;;;5.97;3.47;;;3.10;70.90;;;;;;5053898;28;20385;-31
2022/02/13 05:05:12;;;;;;;5.30;3.83;;;3.10;70.90;;;;;;5053521;28;20025;-32
2022/02/13 05:07:38;;;;;;;5.38;3.70;;;3.10;71.00;;;;;;5053616;28;20483;-30
2022/02/13 05:10:05;;;;;;;7.38;3.65;;;3.10;71.00;;;;;;5053631;28;20024;-32
2022/02/13 05:12:30;;;;;;;6.95;3.70;;;3.10;71.00;;;;;;5053444;28;20102;-33
2022/02/13 05:14:56;;;;;;;7.78;3.25;;;3.10;71.00;;;;;;5053775;28;20481;-33
2022/02/13 05:17:21;;;;;;;3.88;2.80;;;3.10;71.00;;;;;;5053441;28;20477;-35
2022/02/13 05:19:51;;;;;;;5.93;3.38;;;3.10;71.10;;;;;;5053565;28;20096;-30
2022/02/13 05:22:17;;;;;;;8.45;3.55;;;3.10;71.30;;;;;;5053374;28;20393;-31
2022/02/13 05:24:45;;;;;;;5.38;3.13;;;3.10;71.40;;;;;;5053178;28;20028;-30
2022/02/13 05:27:11;;;;;;;8.60;3.65;;;3.10;71.30;;;;;;5053513;28;20103;-34
2022/02/13 05:29:37;;;;;;;7.18;3.72;;;3.10;71.50;;;;;;5053147;28;20528;-31
2022/02/13 05:32:04;;;;;;;5.07;3.58;;;3.00;71.40;;;;;;5052997;28;20393;-30
2022/02/13 05:34:30;;;;;;;5.72;3.60;;;3.00;71.40;;;;;;5053263;28;20024;-31
2022/02/13 05:36:56;;;;;;;7.38;3.58;;;3.00;71.40;;;;;;5053040;28;20039;-33
2022/02/13 05:39:22;;;;;;;5.60;3.53;;;3.00;71.40;;;;;;5052953;28;20539;-34
2022/02/13 05:41:48;;;;;;;7.43;3.78;;;3.00;71.40;;;;;;5052871;28;20025;-30
2022/02/13 05:44:13;;;;;;;6.00;3.35;;;3.00;71.50;;;;;;5052082;28;20132;-30
2022/02/13 05:46:39;;;;;;;5.70;3.78;;;3.00;71.50;;;;;;5052828;28;20477;-32
2022/02/13 05:49:04;;;;;;;5.53;3.40;;;3.00;71.60;;;;;;5052899;28;20020;-35
2022/02/13 05:51:30;;;;;;;7.00;3.50;;;2.90;71.60;;;;;;5052792;28;20036;-33
2022/02/13 05:53:56;;;;;;;6.30;3.72;;;2.90;71.60;;;;;;5052826;28;20026;-31
2022/02/13 05:56:23;;;;;;;8.18;3.92;;;2.90;71.60;;;;;;5052876;28;20506;-31
2022/02/13 05:58:51;;;;;;;6.40;3.50;;;2.90;71.60;;;;;;5052765;28;20083;-37
2022/02/13 06:01:17;;;;;;;6.38;3.67;;;2.80;71.60;;;;;;5052690;28;20021;-34
2022/02/13 06:03:43;;;;;;;6.28;3.60;;;2.80;71.70;;;;;;5052667;28;20048;-32
2022/02/13 06:06:09;;;;;;;6.18;3.83;;;2.90;71.70;;;;;;5052546;28;20130;-31
2022/02/13 06:08:35;;;;;;;8.68;3.20;;;2.80;71.80;;;;;;5052599;28;20021;-33
2022/02/13 06:11:00;;;;;;;5.90;4.00;;;2.80;71.80;;;;;;5052625;28;20195;-38
2022/02/13 06:13:26;;;;;;;5.95;3.78;;;2.80;71.80;;;;;;5052519;28;20104;-31
2022/02/13 06:15:52;;;;;;;4.65;3.28;;;2.80;71.80;;;;;;5052603;28;20036;-31
2022/02/13 06:18:17;;;;;;;7.50;3.85;;;2.80;71.80;;;;;;5052784;28;20408;-32
2022/02/13 06:20:43;;;;;;;5.30;3.58;;;2.80;71.80;;;;;;5052547;28;20025;-31
2022/02/13 06:23:10;;;;;;;6.07;3.60;;;2.80;71.90;;;;;;5052800;28;20028;-30
2022/02/13 06:25:37;;;;;;;5.15;2.95;;;2.80;71.90;;;;;;5052365;28;20095;-30
2022/02/13 06:28:03;;;;;;;3.40;2.92;;;2.80;71.90;;;;;;5052698;28;20032;-31
2022/02/13 06:30:29;;;;;;;6.03;3.55;;;2.80;71.90;;;;;;5052440;28;20040;-30
2022/02/13 06:32:55;;;;;;;6.45;3.35;;;2.80;71.90;;;;;;5052389;28;20096;-33
2022/02/13 06:35:24;;;;;;;7.05;3.50;;;2.80;71.90;;;;;;5052613;28;20049;-31
2022/02/13 06:37:50;;;;;;;5.18;3.55;;;2.90;71.90;;;;;;5052362;28;20021;-30
2022/02/13 06:40:16;;;;;;;6.00;3.47;;;2.90;71.90;;;;;;5052383;28;20052;-31
2022/02/13 06:42:41;;;;;;;5.03;3.13;;;2.90;71.90;;;;;;5052153;28;20049;-32
2022/02/13 06:45:07;;;;;;;5.30;3.35;;;2.90;71.90;;;;;;5052164;28;20078;-30
2022/02/13 06:47:33;;;;;;;7.93;4.32;;;2.90;71.80;;;;;;5052569;28;20489;-30
2022/02/13 06:49:59;;;;;;;6.97;3.42;;;2.90;71.80;;;;;;5052352;28;20028;-30
2022/02/13 06:52:24;;;;;;;5.97;3.75;;;2.90;71.90;;;;;;5052220;28;20021;-31
2022/02/13 06:54:50;;;;;;;6.63;3.58;;;3.00;71.90;;;;;;5054482;28;20032;-30
2022/02/13 06:57:15;;;;;;;4.88;3.38;;;3.00;71.80;;;;;;5056097;28;20021;-30
2022/02/13 06:59:41;;;;;;;6.85;3.55;;;3.00;71.80;;;;;;5055966;28;20359;-35
2022/02/13 07:02:09;;;;;;;6.60;3.50;;;3.00;71.80;;;;;;5055957;28;20055;-30
2022/02/13 07:04:38;;;;;;;4.63;3.55;;;3.00;71.70;;;;;;5056032;28;20465;-31
2022/02/13 07:07:08;;;;;;;7.13;3.58;;;3.10;71.80;;;;;;5055884;28;20026;-35
2022/02/13 07:09:34;;;;;;;5.97;3.70;;;3.10;71.70;;;;;;5055978;28;20025;-35
2022/02/13 07:12:05;;;;;;;5.03;3.38;;;3.20;71.70;;;;;;5055807;28;20024;-31
2022/02/13 07:14:37;;;;;;;6.18;3.60;;;3.20;71.70;;;;;;5055642;28;20071;-32
2022/02/13 07:17:03;;;;;;;6.38;3.80;;;3.20;71.60;;;;;;5055797;28;20049;-30
2022/02/13 07:19:29;;;;;;;6.10;3.75;;;3.30;71.60;;;;;;5055578;28;20056;-29
2022/02/13 07:21:55;;;;;;;6.20;3.63;;;3.30;71.50;;;;;;5055665;28;20067;-30
2022/02/13 07:24:20;;;;;;;7.03;3.83;;;3.30;71.50;;;;;;5055690;28;20473;-32
2022/02/13 07:26:46;;;;;;;7.28;3.67;;;3.30;71.40;;;;;;5055778;28;20037;-30
2022/02/13 07:29:11;;;;;;;6.28;3.70;;;3.40;71.50;;;;;;5054179;28;20083;-32
2022/02/13 07:31:37;;;;;;;8.55;4.15;;;3.40;71.30;;;;;;5055261;28;20025;-30
2022/02/13 07:34:05;;;;;;;5.05;3.70;;;3.50;71.30;;;;;;5055682;28;20017;-31
2022/02/13 07:36:31;;;;;;;4.95;2.97;;;3.50;71.20;;;;;;5055331;28;20033;-32
2022/02/13 07:38:58;;;;;;;5.38;3.78;;;3.60;71.20;;;;;;5055331;28;20029;-33
2022/02/13 07:41:25;;;;;;;7.13;4.00;;;3.50;71.00;;;;;;5055187;28;20025;-31
2022/02/13 07:43:53;;;;;;;6.90;3.92;;;3.60;71.00;;;;;;5055185;28;20052;-32
2022/02/13 07:46:19;;;;;;;5.65;3.47;;;3.60;70.90;;;;;;5055203;28;20057;-36
2022/02/13 07:48:45;;;;;;;5.10;3.63;;;3.60;70.90;;;;;;5055167;28;20147;-34
2022/02/13 07:51:11;;;;;;;4.03;3.20;;;3.60;71.00;;;;;;5055199;28;20134;-33
2022/02/13 07:53:37;;;;;;;8.10;3.97;;;3.60;71.00;;;;;;5055074;28;20036;-32
2022/02/13 07:56:04;;;;;;;6.63;3.75;;;3.70;71.00;;;;;;5055118;28;20039;-31
2022/02/13 07:58:32;;;;;;;6.65;3.88;;;3.70;70.90;;;;;;5055081;28;20021;-34
2022/02/13 08:01:03;;;;;;;5.32;3.25;;;3.70;70.80;;;;;;5055015;28;20029;-36
2022/02/13 08:03:28;;;;;;;6.13;3.78;;;3.80;70.80;;;;;;5054943;28;20036;-38
2022/02/13 08:05:54;;;;;;;5.90;3.65;;;3.90;71.10;;;;;;5054059;28;20036;-31
2022/02/13 08:08:20;;;;;;;5.18;3.40;;;3.90;71.20;;;;;;5055028;28;20051;-34
2022/02/13 08:10:46;;;;;;;5.70;3.85;;;4.00;70.90;;;;;;5055031;28;20484;-32
2022/02/13 08:13:13;;;;;;;6.07;4.10;;;4.10;70.80;;;;;;5054746;28;20178;-31
2022/02/13 08:15:39;;;;;;;4.38;3.42;;;4.10;70.50;;;;;;5054689;28;20465;-38
2022/02/13 08:18:08;;;;;;;6.88;4.10;;;4.20;70.40;;;;;;5054601;28;20029;-30
2022/02/13 08:20:34;;;;;;;6.07;3.88;;;4.30;70.30;;;;;;5054652;28;20036;-34
2022/02/13 08:23:00;;;;;;;6.40;4.18;;;4.30;70.80;;;;;;5054689;28;20024;-30
2022/02/13 08:25:26;;;;;;;5.50;3.72;;;4.40;70.20;;;;;;5054439;28;20025;-30
2022/02/13 08:27:51;;;;;;;7.07;4.13;;;4.40;70.20;;;;;;5054492;28;20055;-30
2022/02/13 08:30:17;;;;;;;6.13;3.28;;;4.50;70.00;;;;;;5054749;28;20045;-36
2022/02/13 08:32:43;;;;;;;5.55;3.45;;;4.50;69.90;;;;;;5054578;28;20303;-35
2022/02/13 08:35:08;;;;;;;6.72;3.70;;;4.60;69.80;;;;;;5054330;28;20059;-30
2022/02/13 08:37:34;;;;;;;9.15;3.95;;;4.60;69.70;;;;;;5054192;28;20091;-31
2022/02/13 08:39:59;;;;;;;6.35;4.07;;;4.70;69.60;;;;;;5054233;28;20035;-32
2022/02/13 08:42:25;;;;;;;5.95;4.40;;;4.70;69.50;;;;;;5053019;28;20138;-31
2022/02/13 08:44:51;;;;;;;5.32;3.70;;;4.80;69.40;;;;;;5052737;28;20036;-34
2022/02/13 08:47:16;;;;;;;6.93;4.03;;;4.80;69.30;;;;;;5054060;28;20036;-32
2022/02/13 08:49:42;;;;;;;7.22;3.67;;;4.80;69.20;;;;;;5053969;28;20053;-31
2022/02/13 08:52:11;;;;;;;5.85;3.92;;;4.90;69.30;;;;;;5053963;28;20013;-33
2022/02/13 08:54:36;;;;;;;6.68;3.90;;;5.00;69.30;;;;;;5054209;28;20490;-35
2022/02/13 08:57:03;;;;;;;7.15;3.90;;;5.00;69.10;;;;;;5053952;28;20100;-39
2022/02/13 08:59:28;;;;;;;6.15;3.63;;;5.10;69.10;;;;;;5052530;28;20032;-31
2022/02/13 09:01:54;;;;;;;6.60;4.18;;;5.10;69.00;;;;;;5053879;28;20021;-32
2022/02/13 09:04:19;;;;;;;8.82;5.80;;;5.20;68.90;;;;;;5053619;28;20036;-30
2022/02/13 09:06:45;;;;;;;9.00;5.45;;;5.20;69.40;;;;;;5053718;28;20036;-32
2022/02/13 09:09:10;;;;;;;9.45;4.95;;;5.30;68.60;;;;;;5053666;28;20029;-37
2022/02/13 09:11:37;;;;;;;6.10;3.85;;;5.30;68.60;;;;;;5053641;28;20047;-31
2022/02/13 09:14:04;;;;;;;5.47;4.10;;;5.30;68.60;;;;;;5053553;28;20032;-32
2022/02/13 09:16:33;;;;;;;7.80;3.40;;;5.40;68.50;;;;;;5053701;28;20091;-33
2022/02/13 09:18:59;;;;;;;5.97;3.88;;;5.50;68.60;;;;;;5053393;28;20108;-33
2022/02/13 09:21:24;;;;;;;7.38;3.83;;;5.50;68.40;;;;;;5053470;28;20507;-33
2022/02/13 09:23:50;;;;;;;5.28;3.53;;;5.60;68.50;;;;;;5053445;28;20032;-30
2022/02/13 09:26:16;;;;;;;6.90;3.75;;;5.70;68.50;;;;;;5053289;28;20024;-34
2022/02/13 09:28:42;;;;;;;4.68;3.25;;;5.70;68.20;;;;;;5053315;28;20028;-32
2022/02/13 09:31:08;;;;;;;5.20;3.50;;;5.80;68.20;;;;;;5053475;28;20480;-34
2022/02/13 09:33:35;;;;;;;4.22;3.13;;;6.00;68.20;;;;;;5053017;28;20013;-32
2022/02/13 09:36:01;;;;;;;6.50;4.15;;;6.10;68.00;;;;;;5053394;28;20025;-34
2022/02/13 09:38:26;;;;;;;5.78;3.78;;;6.20;67.80;;;;;;5053142;28;20551;-32
2022/02/13 09:40:52;;;;;;;5.40;3.38;;;6.30;67.60;;;;;;5053433;28;20033;-33
2022/02/13 09:43:20;;;;;;;4.47;3.80;;;6.50;67.70;;;;;;5053116;28;20045;-31
2022/02/13 09:45:48;;;;;;;4.93;3.30;;;6.50;67.40;;;;;;5052996;28;20080;-31
2022/02/13 09:48:17;;;;;;;5.20;3.60;;;6.60;67.30;;;;;;5053377;28;20100;-33
2022/02/13 09:50:43;;;;;;;4.82;3.40;;;6.70;67.00;;;;;;5053266;28;20009;-33
2022/02/13 09:53:09;;;;;;;5.22;3.70;;;6.80;67.00;;;;;;5053043;28;20024;-33
2022/02/13 09:55:35;;;;;;;5.47;3.72;;;6.80;66.80;;;;;;5053041;28;20060;-31
2022/02/13 09:58:02;;;;;;;5.05;3.75;;;6.80;66.80;;;;;;5052976;28;20047;-33
2022/02/13 10:00:52;;;;;;;6.35;3.63;;;6.90;66.90;;;;;;5052872;28;20420;-31
2022/02/13 10:03:20;;;;;;;4.53;3.25;;;6.90;66.60;;;;;;5053115;28;20113;-31
2022/02/13 10:05:47;;;;;;;6.93;3.97;;;6.90;66.70;;;;;;5052823;28;20082;-31
2022/02/13 10:08:27;;;;;;;5.82;3.40;;;6.90;66.60;;;;;;5052765;28;20025;-30
2022/02/13 10:11:07;;;;;;;4.68;3.45;;;6.90;66.50;;;;;;5052798;28;20053;-31
2022/02/13 10:13:53;;;;;;;5.45;3.63;;;6.90;66.60;;;;;;5052769;28;20025;-32
2022/02/13 10:16:45;;;;;;;5.18;3.60;;;6.90;66.60;;;;;;5052880;28;20029;-31
2022/02/13 10:19:19;;;;;;;4.55;3.78;;;6.90;66.50;;;;;;5052842;28;20103;-33
2022/02/13 10:21:53;;;;;;;5.07;3.47;;;6.90;66.30;;;;;;5052740;28;20021;-34
2022/02/13 10:24:35;;;;;;;5.38;3.80;;;6.90;66.40;;;;;;5052577;28;20025;-35
2022/02/13 10:27:11;;;;;;;6.88;4.45;;;7.00;66.50;;;;;;5052640;28;20097;-31
2022/02/13 10:29:40;;;;;;;8.02;5.75;;;7.00;66.40;;;;;;5054895;28;20028;-32
2022/02/13 10:32:20;;;;;;;9.20;4.63;;;7.10;66.40;;;;;;5056699;28;20017;-35
2022/02/13 10:35:10;;;;;;;5.57;4.10;;;7.20;66.60;;;;;;5056957;28;20104;-35
2022/02/13 10:37:41;;;;;;;5.63;3.90;;;7.30;66.50;;;;;;5056695;28;20620;-30
2022/02/13 10:40:15;;;;;;;4.75;4.07;;;7.30;66.20;;;;;;5056508;28;20029;-31
2022/02/13 10:42:42;;;;;;;4.68;3.63;;;7.40;66.40;;;;;;5056529;28;20118;-33
2022/02/13 10:45:20;;;;;;;5.28;3.70;;;7.40;66.20;;;;;;5056407;28;20033;-31
2022/02/13 10:47:47;;;;;;;6.35;4.03;;;7.40;66.10;;;;;;5056413;28;20083;-34
2022/02/13 10:50:17;;;;;;;6.07;3.80;;;7.50;66.20;;;;;;5056594;28;20025;-32
2022/02/13 10:52:47;;;;;;;4.95;3.88;;;7.60;65.90;;;;;;5056587;28;20115;-32
2022/02/13 10:55:13;;;;;;;4.82;3.47;;;7.60;65.80;;;;;;5056284;28;20114;-32
2022/02/13 10:57:41;;;;;;;4.95;3.67;;;7.50;65.80;;;;;;5056538;28;20036;-30
2022/02/13 11:00:10;;;;;;;5.43;3.25;;;7.60;65.90;;;;;;5054825;28;20067;-31
2022/02/13 11:02:39;;;;;;;5.47;2.88;;;7.50;65.90;;;;;;5056183;28;20118;-32
2022/02/13 11:05:08;;;;;;;5.60;3.47;;;7.60;66.10;;;;;;5055636;28;20070;-32
2022/02/13 11:07:38;;;;;;;3.80;3.33;;;7.60;66.00;;;;;;5056043;28;20032;-35
2022/02/13 11:10:07;;;;;;;4.70;3.63;;;7.60;65.90;;;;;;5055966;28;20029;-32
2022/02/13 11:12:33;;;;;;;4.07;3.58;;;7.60;66.20;;;;;;5055925;28;20029;-31
2022/02/13 11:15:20;;;;;;;6.15;3.40;;;7.70;65.50;;;;;;5055905;28;20029;-35
2022/02/13 11:17:47;;;;;;;4.38;3.03;;;7.70;65.50;;;;;;5055793;28;20048;-31
2022/02/13 11:20:15;;;;;;;5.20;3.35;;;7.80;65.50;;;;;;5055790;28;20029;-32
2022/02/13 11:22:42;;;;;;;5.57;3.53;;;7.80;65.30;;;;;;5055733;28;20055;-31
2022/02/13 11:25:10;;;;;;;3.97;3.08;;;7.90;64.90;;;;;;5055661;28;20033;-34
2022/02/13 11:27:59;;;;;;;4.63;3.10;;;7.90;64.90;;;;;;5055918;28;20048;-31
2022/02/13 11:30:42;;;;;;;5.93;3.20;;;8.00;65.40;;;;;;5055657;28;20021;-33
2022/02/13 11:33:23;;;;;;;4.40;2.97;;;8.00;65.20;;;;;;5055824;28;20025;-31
2022/02/13 11:35:56;;;;;;;4.13;2.90;;;8.10;65.50;;;;;;5055596;28;20493;-33
2022/02/13 11:38:40;;;;;;;5.55;3.55;;;8.10;65.30;;;;;;5055419;28;20036;-32
2022/02/13 11:41:09;;;;;;;5.00;3.60;;;8.20;64.90;;;;;;5054312;28;20033;-32
2022/02/13 11:43:44;;;;;;;4.28;3.25;;;8.30;64.90;;;;;;5055171;28;20053;-31
2022/02/13 11:46:33;;;;;;;4.10;3.15;;;8.30;65.00;;;;;;5055321;28;20033;-33
2022/02/13 11:49:03;;;;;;;6.10;4.40;;;8.40;65.10;;;;;;5055320;28;20037;-32
2022/02/13 11:51:46;;;;;;;6.30;4.10;;;8.50;65.20;;;;;;5055194;28;20318;-33
2022/02/13 11:54:42;;;;;;;5.78;3.95;;;8.50;65.00;;;;;;5055061;28;20178;-35
2022/02/13 11:57:11;;;;;;;5.45;3.50;;;8.60;65.10;;;;;;5054869;28;20037;-36
2022/02/13 11:59:51;;;;;;;8.52;4.18;;;8.60;65.10;;;;;;5054872;28;20564;-32
2022/02/13 12:02:37;;;;;;;7.07;4.40;;;8.60;65.20;;;;;;5054743;28;20147;-37
2022/02/13 12:05:05;;;;;;;6.43;4.05;;;8.70;65.30;;;;;;5054485;28;20041;-31
2022/02/13 12:07:43;;;;;;;6.75;3.75;;;8.80;65.50;;;;;;5054754;28;20057;-31
2022/02/13 12:10:29;;;;;;;6.05;4.50;;;8.80;65.30;;;;;;5054643;28;20120;-32
2022/02/13 12:13:12;;;;;;;9.52;4.70;;;8.90;65.40;;;;;;5054748;28;20017;-31
2022/02/13 12:15:39;;;;;;;8.23;4.75;;;8.90;65.30;;;;;;5054751;28;20528;-31
2022/02/13 12:18:10;;;;;;;5.68;4.00;;;9.00;65.20;;;;;;5054748;28;20079;-31
2022/02/13 12:20:37;;;;;;;5.53;3.67;;;9.00;65.10;;;;;;5054733;28;20025;-35
2022/02/13 12:23:14;;;;;;;5.13;3.30;;;9.10;65.00;;;;;;5054658;28;20041;-32
2022/02/13 12:25:42;;;;;;;7.03;4.07;;;9.20;65.00;;;;;;5054710;28;20484;-31
2022/02/13 12:28:11;;;;;;;4.97;4.20;;;9.30;65.00;;;;;;5054753;28;20070;-32
2022/02/13 12:30:37;;;;;;;5.13;3.80;;;9.40;64.90;;;;;;5054664;28;20422;-32
2022/02/13 12:33:05;;;;;;;8.15;4.75;;;9.50;64.80;;;;;;5054385;28;20481;-31
2022/02/13 12:35:33;;;;;;;7.05;4.00;;;9.60;64.70;;;;;;5054508;28;20510;-31
2022/02/13 12:38:02;;;;;;;3.70;2.97;;;9.70;64.70;;;;;;5054360;28;20029;-32
2022/02/13 12:40:32;;;;;;;5.50;3.28;;;9.80;65.70;;;;;;5054343;28;20031;-35
2022/02/13 12:43:06;;;;;;;4.72;3.60;;;10.00;65.40;;;;;;5054198;28;20056;-31
2022/02/13 12:45:32;;;;;;;;;;;10.00;65.20;;;;;;5054602;28;20032;-32
2022/02/13 12:48:00;;;;;;;4.95;3.20;;;10.10;65.30;;;;;;5054176;28;19912;-32
2022/02/13 12:50:29;;;;;;;4.47;2.60;;;10.10;65.10;;;;;;5054062;28;20032;-34
2022/02/13 12:53:17;;;;;;;3.72;3.08;;;10.10;65.30;;;;;;5053775;28;20119;-28
2022/02/13 12:55:44;;;;;;;4.13;2.95;;;10.20;65.50;;;;;;5053629;28;20104;-27
2022/02/13 12:58:10;;;;;;;5.22;3.40;;;10.20;65.40;;;;;;5053916;28;20067;-29
2022/02/13 13:00:48;;;;;;;4.40;3.13;;;10.30;65.20;;;;;;5053784;28;20051;-30